createdAt,value
2022-09-15T00:01:12.149Z,16.21
2022-09-15T00:21:32.320Z,16.08
2022-09-15T00:24:59.749Z,15.98
2022-09-15T00:28:35.422Z,15.95
2022-09-15T00:45:42.473Z,15.98
2022-09-15T00:49:15.648Z,15.96
2022-09-15T00:52:55.015Z,15.89
2022-09-15T00:56:31.099Z,15.85
2022-09-15T01:10:21.614Z,16.06
2022-09-15T01:13:55.160Z,16.04
2022-09-15T01:17:42.607Z,16.08
2022-09-15T01:21:29.019Z,16.05
2022-09-15T01:35:33.547Z,16.23
2022-09-15T01:39:08.027Z,16.05
2022-09-15T01:42:41.389Z,16.03
2022-09-15T01:46:20.410Z,16.00
2022-09-15T02:03:27.439Z,16.16
2022-09-15T02:07:12.202Z,16.11
2022-09-15T02:10:42.324Z,16.06
2022-09-15T02:14:18.700Z,16.07
2022-09-15T02:18:09.231Z,16.03
2022-09-15T02:24:59.842Z,16.09
2022-09-15T02:28:30.522Z,16.09
2022-09-15T02:32:07.686Z,16.12
2022-09-15T02:35:43.370Z,16.13
2022-09-15T02:39:20.663Z,16.11
2022-09-15T02:43:01.449Z,16.11
2022-09-15T02:46:49.085Z,16.07
2022-09-15T03:00:17.160Z,16.04
2022-09-15T03:03:50.559Z,15.95
2022-09-15T03:07:23.878Z,15.93
2022-09-15T03:14:06.152Z,15.99
2022-09-15T03:17:41.999Z,15.90
2022-09-15T03:21:21.509Z,15.89
2022-09-15T03:34:39.704Z,16.07
2022-09-15T03:38:16.239Z,16.07
2022-09-15T03:41:49.879Z,16.08
2022-09-15T03:48:36.149Z,16.21
2022-09-15T03:52:12.653Z,16.19
2022-09-15T04:06:21.662Z,16.34
2022-09-15T04:09:53.227Z,16.28
2022-09-15T04:13:33.100Z,16.25
2022-09-15T04:17:11.265Z,16.27
2022-09-15T04:44:59.569Z,16.45
2022-09-15T04:48:54.119Z,16.34
2022-09-15T04:52:44.455Z,16.16
2022-09-15T04:56:18.269Z,16.04
2022-09-15T05:00:04.673Z,15.93
2022-09-15T05:04:26.600Z,15.93
2022-09-15T05:14:30.467Z,15.86
2022-09-15T05:18:04.480Z,15.69
2022-09-15T05:21:37.860Z,15.57
2022-09-15T05:25:12.960Z,15.57
2022-09-15T05:31:42.486Z,15.59
2022-09-15T05:35:16.439Z,15.45
2022-09-15T05:38:51.296Z,15.33
2022-09-15T05:49:40.420Z,15.26
2022-09-15T05:52:54.579Z,15.28
2022-09-15T05:56:27.922Z,15.23
2022-09-15T06:00:32.420Z,15.23
2022-09-15T06:04:11.352Z,15.19
2022-09-15T06:19:06.133Z,15.10
2022-09-15T06:22:05.150Z,15.13
2022-09-15T06:25:47.242Z,15.02
2022-09-15T06:29:25.064Z,15.05
2022-09-15T06:32:23.248Z,15.09
2022-09-15T06:36:15.279Z,15.07
2022-09-15T06:39:34.155Z,15.01
2022-09-15T06:43:13.462Z,15.00
2022-09-15T06:47:15.695Z,15.02
2022-09-15T06:51:02.814Z,14.97
2022-09-15T06:54:55.299Z,14.94
2022-09-15T06:59:20.512Z,14.97
2022-09-15T07:03:50.360Z,14.98
2022-09-15T07:07:46.109Z,15.09
2022-09-15T07:11:17.009Z,15.11
2022-09-15T07:14:55.637Z,15.14
2022-09-15T07:25:23.919Z,15.27
2022-09-15T07:28:57.629Z,15.33
2022-09-15T07:32:25.930Z,15.34
2022-09-15T07:35:57.541Z,15.41
2022-09-15T07:39:07.104Z,15.40
2022-09-15T07:42:32.162Z,15.44
2022-09-15T07:46:09.809Z,15.52
2022-09-15T07:49:39.841Z,15.54
2022-09-15T07:53:15.091Z,15.50
2022-09-15T07:56:48.549Z,15.54
2022-09-15T08:03:36.587Z,15.67
2022-09-15T08:07:08.252Z,15.75
2022-09-15T08:10:10.374Z,15.80
2022-09-15T08:13:42.437Z,15.84
2022-09-15T08:17:15.798Z,15.93
2022-09-15T08:20:49.221Z,15.96
2022-09-15T08:24:25.299Z,15.95
2022-09-15T08:27:59.958Z,16.01
2022-09-15T08:31:24.589Z,16.05
2022-09-15T08:34:57.902Z,16.11
2022-09-15T08:38:17.489Z,16.16
2022-09-15T08:58:55.381Z,16.49
2022-09-15T09:03:04.293Z,16.63
2022-09-15T09:06:53.099Z,16.70
2022-09-15T09:10:50.350Z,16.83
2022-09-15T09:28:38.995Z,17.60
2022-09-15T09:32:21.660Z,17.76
2022-09-15T09:35:56.157Z,17.93
2022-09-15T09:39:29.629Z,18.11
2022-09-15T09:43:04.549Z,18.26
2022-09-15T09:56:33.183Z,18.70
2022-09-15T10:00:31.396Z,18.68
2022-09-15T10:04:24.418Z,18.67
2022-09-15T10:08:06.775Z,18.67
2022-09-15T10:11:49.498Z,18.75
2022-09-15T10:15:31.697Z,18.90
2022-09-15T10:29:46.838Z,18.78
2022-09-15T10:33:28.489Z,18.75
2022-09-15T10:37:23.307Z,18.67
2022-09-15T10:40:56.529Z,18.65
2022-09-15T10:44:42.163Z,18.61
2022-09-15T10:58:45.110Z,18.85
2022-09-15T11:03:01.760Z,18.78
2022-09-15T11:06:48.727Z,18.66
2022-09-15T11:10:47.030Z,18.62
2022-09-15T11:14:54.478Z,18.51
2022-09-15T11:25:49.277Z,18.25
2022-09-15T11:29:28.358Z,18.35
2022-09-15T11:33:08.452Z,18.49
2022-09-15T11:36:51.607Z,18.73
2022-09-15T11:40:33.187Z,18.77
2022-09-15T11:44:18.707Z,18.67
2022-09-15T11:47:56.614Z,18.61
2022-09-15T11:51:31.290Z,18.53
2022-09-15T12:19:42.088Z,18.75
2022-09-15T12:23:22.308Z,18.64
2022-09-15T12:26:53.848Z,18.70
2022-09-15T12:30:41.666Z,18.77
2022-09-15T12:41:20.876Z,19.16
2022-09-15T12:44:56.430Z,19.07
2022-09-15T12:48:36.589Z,19.10
2022-09-15T13:02:48.180Z,19.01
2022-09-15T13:06:26.782Z,18.86
2022-09-15T13:10:19.329Z,18.83
2022-09-15T13:14:28.458Z,18.88
2022-09-15T13:18:07.357Z,18.89
2022-09-15T13:31:38.817Z,18.81
2022-09-15T13:35:39.880Z,18.65
2022-09-15T13:39:50.446Z,18.57
2022-09-15T13:43:49.886Z,18.58
2022-09-15T14:01:47.663Z,18.58
2022-09-15T14:05:04.547Z,18.51
2022-09-15T14:08:43.322Z,18.45
2022-09-15T14:12:18.518Z,18.39
2022-09-15T14:36:30.328Z,18.65
2022-09-15T14:40:18.469Z,18.62
2022-09-15T14:43:52.180Z,18.62
2022-09-15T15:01:16.056Z,18.59
2022-09-15T15:04:54.467Z,18.39
2022-09-15T15:08:35.477Z,18.32
2022-09-15T15:12:22.956Z,18.18
2022-09-15T15:29:45.869Z,18.04
2022-09-15T15:33:21.317Z,17.92
2022-09-15T15:37:03.743Z,17.83
2022-09-15T15:40:39.626Z,17.74
2022-09-15T15:44:30.708Z,17.64
2022-09-15T15:47:57.922Z,17.58
2022-09-15T16:01:19.470Z,17.55
2022-09-15T16:04:56.757Z,17.43
2022-09-15T16:08:35.427Z,17.38
2022-09-15T16:22:00.628Z,17.29
2022-09-15T16:25:36.574Z,17.16
2022-09-15T16:29:04.607Z,17.06
2022-09-15T16:49:45.695Z,16.95
2022-09-15T16:53:20.209Z,16.75
2022-09-15T16:56:54.658Z,16.71
2022-09-15T17:00:28.051Z,16.64
2022-09-15T17:04:03.969Z,16.65
2022-09-15T17:24:27.705Z,16.62
2022-09-15T17:28:03.270Z,16.53
2022-09-15T17:31:38.615Z,16.50
2022-09-15T17:52:15.507Z,16.32
2022-09-15T17:55:50.288Z,16.20
2022-09-15T17:59:30.138Z,16.14
2022-09-15T18:23:24.409Z,15.91
2022-09-15T18:26:57.897Z,15.78
2022-09-15T18:30:33.089Z,15.70
2022-09-15T18:34:07.361Z,15.66
2022-09-15T18:47:50.778Z,15.66
2022-09-15T18:51:40.858Z,15.54
2022-09-15T18:55:23.673Z,15.49
2022-09-15T18:59:01.122Z,15.47
2022-09-15T19:02:35.215Z,15.44
2022-09-15T19:19:43.607Z,15.45
2022-09-15T19:23:17.926Z,15.38
2022-09-15T19:26:55.345Z,15.35
2022-09-15T19:40:21.396Z,15.41
2022-09-15T19:43:58.706Z,15.32
2022-09-15T19:47:32.787Z,15.28
2022-09-15T19:57:50.786Z,15.26
2022-09-15T20:01:21.766Z,15.11
2022-09-15T20:05:05.291Z,15.02
2022-09-15T20:18:51.648Z,14.95
2022-09-15T20:22:25.497Z,14.85
2022-09-15T20:26:04.895Z,14.81
2022-09-15T20:29:38.367Z,14.78
2022-09-15T20:33:11.956Z,14.70
2022-09-15T20:39:43.900Z,14.81
2022-09-15T20:43:17.197Z,14.73
2022-09-15T20:46:50.976Z,14.71
2022-09-15T21:03:46.478Z,14.75
2022-09-15T21:07:19.827Z,14.66
2022-09-15T21:10:54.767Z,14.64
2022-09-15T21:21:08.812Z,14.69
2022-09-15T21:24:39.521Z,14.62
2022-09-15T21:28:11.213Z,14.60
2022-09-15T21:38:18.317Z,14.59
2022-09-15T21:41:51.987Z,14.43
2022-09-15T21:45:26.383Z,14.40
2022-09-15T21:58:52.913Z,14.34
2022-09-15T22:02:31.889Z,14.22
2022-09-15T22:06:06.406Z,14.21
2022-09-15T22:09:40.657Z,14.22
2022-09-15T22:13:15.728Z,14.22
2022-09-15T22:30:18.077Z,14.25
2022-09-15T22:33:52.569Z,14.15
2022-09-15T22:37:16.078Z,14.11
2022-09-15T22:40:50.517Z,14.09
2022-09-15T22:44:25.328Z,14.07
2022-09-15T22:57:50.707Z,14.05
2022-09-15T23:01:28.648Z,13.97
2022-09-15T23:05:02.587Z,13.93
2022-09-15T23:26:30.467Z,13.86
2022-09-15T23:30:03.917Z,13.77
2022-09-15T23:33:37.728Z,13.73
2022-09-15T23:50:23.461Z,13.69
2022-09-15T23:53:57.907Z,13.65
2022-09-15T23:57:55.965Z,13.59
